• Join FlightAware (Why Join?)
  • Login
  • US Flag 
12:57AM EDT


 

Airport Tracker/Info


-or-


 

Live Flight TrackerFlight Track Log ✈ DAL268 ✈ 28-Jul-2013 ✈ KSFO - KJFK

Flight Track Log - Related Links

Times and Time Zones

All times are in EDT time to prevent confusion due to time zone crossing. See the DAL268 flight status page for this flight to view local times or setup timezone preferences in your user account.

Time Position Orientation Groundspeed Altitude Reporting Facility
EDT Latitude Longitude Course Direction KTS MPH feet Rate Location/Type
02:45PM 37.6160 -122.3810 129° Southeast 21 24  Level FlightAware
02:48PM 37.6070 -122.3850 199° South 27 31 60 Level FlightAware
02:48PM 37.6070 -122.3840 90° East 24 28 60 Level FlightAware
02:49PM 37.6060 -122.3830 142° Southeast 25 29 120 Level FlightAware
02:49PM 37.6060 -122.3800 90° East 25 29 120 Level FlightAware
02:50PM 37.6070 -122.3810 322° Northwest 2 2 120 Level FlightAware
02:53PM 37.7084 -122.0623 63° Northeast  Level FlightAware Approximate
02:53PM 37.6100 -122.3780 63° Northeast 90 104  Level FlightAware
02:54PM 37.6210 -122.3720 23° Northeast 165 190 1,140 Level FlightAware
02:54PM 37.6327 -122.3640 28° Northeast 166 191 700 2,400 Climbing FlightAware ADS-B
02:54PM 37.6353 -122.3610 42° Northeast 169 194 900 2,460 Climbing FlightAware ADS-B
02:54PM 37.6405 -122.3560 37° Northeast 175 201 1,200 1,560 Climbing FlightAware ADS-B
02:54PM 37.6496 -122.3440 46° Northeast 197 227 1,500 1,200 Climbing FlightAware ADS-B
02:55PM 37.6621 -122.3280 45° Northeast 209 241 1,900 1,380 Climbing FlightAware ADS-B
02:55PM 37.6742 -122.3130 44° Northeast 238 274 2,300 1,680 Climbing FlightAware ADS-B
02:55PM 37.6879 -122.2950 46° Northeast 256 295 2,800 1,920 Climbing FlightAware ADS-B
02:55PM 37.7021 -122.2770 45° Northeast 270 311 3,400 2,040 Climbing FlightAware ADS-B
02:56PM 37.7178 -122.2550 48° Northeast 270 311 4,000 2,280 Climbing FlightAware ADS-B
02:56PM 37.7367 -122.2300 46° Northeast 285 328 4,900 2,820 Climbing FlightAware ADS-B
02:56PM 37.7520 -122.2100 46° Northeast 283 326 5,800 2,820 Climbing FlightAware ADS-B
02:57PM 37.7669 -122.1890 48° Northeast 285 328 6,500 2,520 Climbing FlightAware ADS-B
02:57PM 37.7702 -122.1830 55° Northeast 286 329 6,700 2,460 Climbing FlightAware ADS-B
02:57PM 37.7749 -122.1720 62° Northeast 288 331 7,000 2,400 Climbing FlightAware ADS-B
02:57PM 37.7810 -122.1520 69° East 292 336 7,500 2,400 Climbing FlightAware ADS-B
02:57PM 37.7877 -122.1280 71° East 296 341 8,100 2,340 Climbing FlightAware ADS-B
02:58PM 37.7952 -122.0990 72° East 299 344 8,800 2,340 Climbing FlightAware ADS-B
02:58PM 37.8019 -122.0730 72° East 302 348 9,400 2,160 Climbing FlightAware ADS-B
02:58PM 37.8152 -122.0210 72° East 312 359 10,500 1,560 Climbing FlightAware ADS-B
02:59PM 37.8295 -121.9660 72° East 343 395 11,000 960 Climbing FlightAware ADS-B
02:59PM 37.8454 -121.9050 72° East 372 428 11,500 1,080 Climbing FlightAware ADS-B
03:00PM 37.8620 -121.8400 72° East 394 453 12,100 1,200 Climbing FlightAware ADS-B
03:00PM 37.8797 -121.7720 72° East 417 480 12,700 1,260 Climbing FlightAware ADS-B
03:01PM 37.8984 -121.6990 72° East 432 497 13,400 1,620 Climbing FlightAware ADS-B
03:01PM 37.9178 -121.6240 72° East 438 504 14,400 2,040 Climbing FlightAware ADS-B
03:02PM 37.9368 -121.5490 72° East 440 506 15,500 2,100 Climbing FlightAware ADS-B
03:02PM 37.9570 -121.4700 72° East 443 510 16,600 1,920 Climbing FlightAware ADS-B
03:03PM 37.9772 -121.3910 72° East 449 517 17,600 1,620 Climbing FlightAware ADS-B
03:04PM 38.0000 -121.3010 72° East 457 526 18,500 1,560 Climbing FlightAware
03:04PM 38.0260 -121.1980 72° East 461 531 19,600 1,620 Climbing FlightAware
03:05PM 38.0540 -121.0850 73° East 467 537 20,800 1,500 Climbing FlightAware
03:06PM 38.0820 -120.9750 72° East 473 544 21,800 1,380 Climbing FlightAware
03:06PM 38.1070 -120.8720 73° East 479 551 22,700 1,260 Climbing FlightAware
03:07PM 38.1360 -120.7480 73° East 488 562 23,600 1,080 Climbing FlightAware
03:08PM 38.1660 -120.6260 73° East 495 570 24,400 1,200 Climbing FlightAware
03:09PM 38.1920 -120.5160 73° East 496 571 25,300 1,500 Climbing FlightAware
03:09PM 38.2190 -120.4000 73° East 493 567 26,500 1,560 Climbing FlightAware
03:10PM 38.2460 -120.2880 73° East 493 567 27,500 1,440 Climbing FlightAware
03:10PM 38.2630 -120.1860 78° East 490 564 28,400 1,440 Climbing FlightAware
03:11PM 38.2860 -120.0440 78° East 488 562 29,600 1,320 Climbing FlightAware
03:12PM 38.3050 -119.9330 78° East 488 562 30,400 1,140 Climbing FlightAware
03:13PM 38.3230 -119.8320 77° East 489 563 31,100 1,020 Climbing FlightAware
03:13PM 38.3450 -119.7010 78° East 491 565 31,800 900 Climbing FlightAware
03:14PM 38.3660 -119.5770 78° East 494 568 32,500 960 Climbing FlightAware
03:15PM 38.3870 -119.4570 77° East 496 571 33,200 960 Climbing FlightAware
03:15PM 38.4040 -119.3500 79° East 497 572 33,800 720 Climbing FlightAware
03:16PM 38.4280 -119.2110 78° East 501 577 34,300 780 Climbing FlightAware
03:17PM 38.4470 -119.0920 78° East 502 578 35,000 480 Climbing FlightAware
03:18PM 38.4660 -118.9740 78° East 503 579 35,000  Level FlightAware
03:18PM 38.4850 -118.8550 78° East 508 585 35,000 360 Level FlightAware
03:19PM 38.5020 -118.7420 79° East 506 582 35,500 660 Climbing FlightAware
03:21PM 38.5670 -118.3220 79° East 513 590 37,000 480 Climbing FlightAware
03:22PM 38.5850 -118.2060 79° East 516 594 37,000  Level FlightAware
03:23PM 38.6060 -118.0670 79° East 521 600 37,000  Level FlightAware
03:24PM 38.6350 -117.8760 79° East 521 600 37,000  Level FlightAware
03:24PM 38.6490 -117.7830 79° East 521 600 37,000  Level FlightAware
03:25PM 38.6680 -117.6600 79° East 521 600 37,000  Level FlightAware
03:26PM 38.6820 -117.5670 79° East 521 600 37,000  Level FlightAware
03:26PM 38.6950 -117.4790 79° East 521 600 37,000  Level FlightAware
03:27PM 38.7140 -117.3560 79° East 521 600 37,000  Level FlightAware
03:28PM 38.7280 -117.2600 79° East 521 600 37,000  Level FlightAware
03:28PM 38.7420 -117.1670 79° East 521 600 37,000  Level FlightAware
03:29PM 38.7600 -117.0460 79° East 521 600 37,000  Level FlightAware
03:30PM 38.7750 -116.9510 79° East 521 600 37,000  Level FlightAware
03:31PM 38.7940 -116.8270 79° East 521 600 37,000  Level FlightAware
03:31PM 38.8080 -116.7340 79° East 521 600 37,000  Level FlightAware
03:32PM 38.8260 -116.6130 79° East 521 600 37,000  Level FlightAware
03:33PM 38.8400 -116.5200 79° East 521 600 37,000  Level FlightAware
03:33PM 38.8764 -116.1511 79° East 519 597 37,000  Level Salt Lake Center
03:34PM 38.9000 -115.9711 80° East 514 592 37,000  Level Salt Lake Center
03:35PM 38.9239 -115.7875 80° East 519 597 37,000  Level Salt Lake Center
03:36PM 38.9483 -115.6042 80° East 520 598 37,000  Level Salt Lake Center
03:37PM 38.9708 -115.4217 81° East 519 597 37,000  Level Salt Lake Center
03:39PM 39.0044 -115.2286 77° East 527 606 37,000  Level Salt Lake Center
03:40PM 39.0467 -115.0514 73° East 522 601 37,000  Level Salt Lake Center
03:41PM 39.0903 -114.8722 73° East 523 602 37,000  Level Salt Lake Center
03:42PM 39.1433 -114.6581 72° East 523 602 37,000  Level Salt Lake Center
03:47PM 39.3880 -113.6320 72° East 525 604 37,000  Level FlightAware
03:48PM 39.4150 -113.5180 73° East 526 605 37,000  Level FlightAware
03:49PM 39.4440 -113.3960 73° East 526 605 37,000  Level FlightAware
03:49PM 39.4701 -113.2810 74° East 527 606 37,000  Level FlightAware ADS-B
03:50PM 39.4912 -113.1900 73° East 526 605 37,000  Level FlightAware ADS-B
03:50PM 39.5141 -113.0900 73° East 527 606 37,000  Level FlightAware ADS-B
03:51PM 39.5372 -112.9890 73° East 526 605 37,000  Level FlightAware ADS-B
03:51PM 39.5591 -112.8930 73° East 525 604 37,000  Level FlightAware ADS-B
03:52PM 39.5798 -112.8020 74° East 526 605 37,000  Level FlightAware ADS-B
03:52PM 39.6028 -112.7000 74° East 527 606 37,000  Level FlightAware ADS-B
03:53PM 39.6234 -112.6080 74° East 529 609 37,000  Level FlightAware ADS-B
03:54PM 39.6456 -112.5090 74° East 529 609 37,000  Level FlightAware ADS-B
03:54PM 39.6673 -112.4120 74° East 529 609 37,000  Level FlightAware ADS-B
03:55PM 39.6893 -112.3120 74° East 529 609 37,000  Level FlightAware ADS-B
03:55PM 39.7097 -112.2200 74° East 529 609 37,000  Level FlightAware ADS-B
03:56PM 39.7315 -112.1210 74° East 530 610 37,000  Level FlightAware ADS-B
03:56PM 39.7536 -112.0200 74° East 530 610 37,000  Level FlightAware ADS-B
03:57PM 39.7742 -111.9130 76° East 529 609 37,000  Level FlightAware ADS-B
03:57PM 39.7871 -111.8180 80° East 529 609 37,000  Level FlightAware ADS-B
03:58PM 39.7998 -111.7230 80° East 530 610 37,000  Level FlightAware ADS-B
03:58PM 39.8125 -111.6290 80° East 532 612 37,000  Level FlightAware ADS-B
03:59PM 39.8291 -111.5100 80° East 533 613 37,000  Level FlightAware ADS-B
03:59PM 39.8444 -111.4150 78° East 536 617 37,000  Level FlightAware ADS-B
04:00PM 39.8607 -111.3150 78° East 535 616 37,000  Level FlightAware ADS-B
04:00PM 39.8725 -111.2440 78° East 532 612 37,000  Level FlightAware ADS-B
04:01PM 39.8940 -111.1350 76° East 531 611 37,000  Level FlightAware ADS-B
04:01PM 39.9063 -111.0890 71° East 530 610 37,000  Level FlightAware ADS-B
04:02PM 39.9419 -110.9680 69° East 531 611 37,000  Level FlightAware ADS-B
04:02PM 39.9682 -110.8780 69° East 531 611 37,000  Level FlightAware ADS-B
04:03PM 39.9955 -110.7840 69° East 527 606 37,000  Level FlightAware ADS-B
04:04PM 40.0390 -110.6360 69° East 526 605 37,000  Level FlightAware
04:04PM 40.0740 -110.5160 69° East 529 609 37,000  Level FlightAware
04:05PM 40.1070 -110.4020 69° East 528 608 37,000  Level FlightAware
04:06PM 40.1390 -110.2900 69° East 528 608 37,000  Level FlightAware
04:06PM 40.1800 -110.1460 70° East 530 610 37,000  Level FlightAware
04:07PM 40.2130 -110.0300 70° East 531 611 37,000  Level FlightAware
04:08PM 40.2490 -109.9030 70° East 534 615 37,000  Level FlightAware
04:09PM 40.2840 -109.7810 69° East 531 611 37,000  Level FlightAware
04:09PM 40.3180 -109.6570 70° East 533 613 37,000  Level FlightAware
04:10PM 40.3590 -109.5110 70° East 534 615 37,000  Level FlightAware
04:10PM 40.3830 -109.4260 70° East 536 617 37,000  Level FlightAware
04:11PM 40.4200 -109.2920 70° East 537 618 37,000  Level FlightAware
04:12PM 40.4680 -109.1190 70° East 538 619 37,000  Level FlightAware
04:13PM 40.4990 -109.0040 70° East 539 620 37,000  Level FlightAware
04:14PM 40.5370 -108.8650 70° East 538 619 37,000  Level FlightAware
04:14PM 40.5680 -108.7510 70° East 538 619 37,000  Level FlightAware
04:15PM 40.6000 -108.6330 70° East 538 619 37,000  Level FlightAware
04:15PM 40.6340 -108.5060 71° East 538 619 37,000  Level FlightAware
04:16PM 40.6670 -108.3810 71° East 539 620 37,000  Level FlightAware
04:17PM 40.7040 -108.2440 70° East 540 621 37,000  Level FlightAware
04:18PM 40.7400 -108.1070 71° East 540 621 37,000  Level FlightAware
04:18PM 40.7720 -107.9830 71° East 539 620 37,000  Level FlightAware
04:19PM 40.8060 -107.8550 71° East 539 620 37,000  Level FlightAware
04:20PM 40.8350 -107.7410 71° East 540 621 37,000  Level FlightAware
04:20PM 40.8670 -107.6190 71° East 539 620 37,000  Level FlightAware
04:21PM 40.9030 -107.4800 71° East 539 620 37,000  Level FlightAware
04:22PM 40.9360 -107.3530 71° East 539 620 37,000  Level FlightAware
04:22PM 40.9740 -107.1990 72° East 539 620 37,000  Level FlightAware
04:23PM 41.0100 -107.0590 71° East 539 620 37,000  Level FlightAware
04:24PM 41.0530 -106.8870 72° East 539 620 37,000  Level FlightAware
04:25PM 41.0840 -106.7640 71° East 540 621 37,000  Level FlightAware
04:26PM 41.1190 -106.6240 72° East 539 620 37,000  Level FlightAware
04:26PM 41.1470 -106.5080 72° East 538 619 37,000  Level FlightAware
04:27PM 41.1750 -106.3930 72° East 538 619 37,000  Level FlightAware
04:27PM 41.2080 -106.2600 72° East 539 620 37,000  Level FlightAware
04:28PM 41.2380 -106.1370 72° East 539 620 37,000  Level FlightAware
04:29PM 41.2680 -106.0100 73° East 539 620 37,000  Level FlightAware
04:29PM 41.3000 -105.8770 72° East 539 620 37,000  Level FlightAware
04:30PM 41.3310 -105.7510 72° East 539 620 37,000  Level FlightAware
04:31PM 41.3620 -105.6240 72° East 538 619 37,000  Level FlightAware
04:32PM 41.3990 -105.4840 71° East 540 621 37,000  Level FlightAware
04:32PM 41.4340 -105.3510 71° East 539 620 37,000  Level FlightAware
04:33PM 41.4680 -105.2170 71° East 537 618 37,000  Level FlightAware
04:33PM 41.4910 -105.1250 72° East 538 619 37,000  Level FlightAware
04:34PM 41.5152 -105.0310 71° East 539 620 37,000  Level FlightAware ADS-B
04:34PM 41.5396 -104.9340 71° East 539 620 37,000  Level FlightAware ADS-B
04:35PM 41.5647 -104.8340 71° East 539 620 37,000  Level FlightAware ADS-B
04:36PM 41.5883 -104.7390 72° East 539 620 37,000  Level FlightAware ADS-B
04:36PM 41.6121 -104.6440 71° East 538 619 37,000  Level FlightAware ADS-B
04:37PM 41.6365 -104.5460 72° East 538 619 37,000  Level FlightAware ADS-B
04:37PM 41.6605 -104.4490 72° East 538 619 37,000  Level FlightAware ADS-B
04:38PM 41.6841 -104.3530 72° East 537 618 37,000  Level FlightAware ADS-B
04:38PM 41.7113 -104.2420 72° East 537 618 37,000  Level FlightAware ADS-B
04:39PM 41.7344 -104.1470 72° East 537 618 37,000  Level FlightAware ADS-B
04:39PM 41.7599 -104.0420 72° East 538 619 37,000  Level FlightAware ADS-B
04:40PM 41.7832 -103.9460 72° East 538 619 37,000  Level FlightAware ADS-B
04:40PM 41.8067 -103.8490 72° East 538 619 37,000  Level FlightAware ADS-B
04:41PM 41.8296 -103.7530 72° East 537 618 37,000  Level FlightAware ADS-B
04:41PM 41.8526 -103.6570 72° East 538 619 37,000  Level FlightAware ADS-B
04:42PM 41.8830 -103.5270 73° East 539 620 37,000  Level FlightAware ADS-B
04:42PM 41.9000 -103.4360 76° East 541 623 37,000  Level FlightAware ADS-B
04:43PM 41.9150 -103.3360 79° East 541 623 37,000  Level FlightAware ADS-B
04:43PM 41.9290 -103.2370 79° East 541 623 37,000  Level FlightAware ADS-B
04:44PM 41.9428 -103.1380 79° East 542 624 37,000  Level FlightAware ADS-B
04:44PM 41.9572 -103.0340 79° East 542 624 37,000  Level FlightAware ADS-B
04:45PM 41.9711 -102.9320 80° East 542 624 37,000  Level FlightAware ADS-B
04:46PM 41.9878 -102.8090 80° East 541 623 37,000  Level FlightAware ADS-B
04:46PM 42.0091 -102.6520 80° East 542 624 37,000  Level FlightAware ADS-B
04:47PM 42.0304 -102.4930 80° East 540 621 37,000  Level FlightAware ADS-B
04:48PM 42.0478 -102.3610 80° East 540 621 37,000  Level FlightAware ADS-B
04:48PM 42.0609 -102.2620 80° East 540 621 37,000  Level FlightAware ADS-B
04:49PM 42.0775 -102.1350 80° East 540 621 37,000  Level FlightAware ADS-B
04:50PM 42.0932 -102.0130 80° East 540 621 37,000  Level FlightAware ADS-B
04:50PM 42.1075 -101.9020 80° East 541 623 37,000  Level FlightAware ADS-B
04:51PM 42.1228 -101.7810 80° East 541 623 37,000  Level FlightAware ADS-B
04:52PM 42.1553 -101.5136 80° East 539 620 37,000  Level Minneapolis Center
04:53PM 42.1803 -101.3144 80° East 539 620 37,000  Level Minneapolis Center
04:54PM 42.2044 -101.1150 81° East 539 620 37,000  Level Minneapolis Center
04:55PM 42.2286 -100.9150 81° East 540 621 37,000  Level Minneapolis Center
04:56PM 42.2522 -100.7136 81° East 541 623 37,000  Level Minneapolis Center
04:57PM 42.2756 -100.5142 81° East 539 620 37,000  Level Minneapolis Center
04:58PM 42.2986 -100.3131 81° East 541 623 37,000  Level Minneapolis Center
04:59PM 42.3256 -100.0717 81° East 540 621 37,000  Level Minneapolis Center
05:00PM 42.3478 -99.8703 81° East 541 623 37,000  Level Minneapolis Center
05:01PM 42.3692 -99.6672 82° East 543 625 37,000  Level Minneapolis Center
05:03PM 42.3953 -99.4244 82° East 540 621 37,000  Level Denver Center
05:04PM 42.4125 -99.2625 82° East 544 626 37,000  Level Minneapolis Center
05:05PM 42.4333 -99.0594 82° East 545 627 37,000  Level Minneapolis Center
05:06PM 42.4586 -98.8161 82° East 544 626 37,000  Level Minneapolis Center
05:07PM 42.4758 -98.6125 83° East 543 625 37,000  Level Minneapolis Center
05:08PM 42.4858 -98.4044 86° East 549 632 37,000  Level Minneapolis Center
05:09PM 42.4953 -98.1992 86° East 546 628 37,000  Level Minneapolis Center
05:10PM 42.5047 -97.9931 86° East 546 628 37,000  Level Minneapolis Center
05:11PM 42.5139 -97.7836 87° East 548 631 37,000  Level Minneapolis Center
05:12PM 42.5242 -97.5367 87° East 545 627 37,000  Level Minneapolis Center
05:13PM 42.5325 -97.3314 87° East 546 628 37,000  Level Minneapolis Center
05:14PM 42.5417 -97.0864 87° East 543 625 37,000  Level Minneapolis Center
05:15PM 42.5486 -96.8822 87° East 541 623 37,000  Level Minneapolis Center
05:16PM 42.5561 -96.6753 87° East 546 628 37,000  Level Minneapolis Center
05:17PM 42.5628 -96.4703 87° East 543 625 37,000  Level Minneapolis Center
05:18PM 42.5694 -96.2639 87° East 545 627 37,000  Level Minneapolis Center
05:19PM 42.5756 -96.0583 88° East 545 627 37,000  Level Minneapolis Center
05:20PM 42.5811 -95.8514 88° East 546 628 37,000  Level Minneapolis Center
05:21PM 42.5867 -95.6022 88° East 549 632 37,000  Level Minneapolis Center
05:22PM 42.5919 -95.3972 88° East 544 626 37,000  Level Minneapolis Center
05:23PM 42.5961 -95.1925 88° East 542 624 37,000  Level Minneapolis Center
05:24PM 42.6000 -94.9889 88° East 541 623 37,000  Level Minneapolis Center
05:25PM 42.6036 -94.7842 89° East 541 623 37,000  Level Minneapolis Center
05:27PM 42.6069 -94.5631 89° East 540 621 37,000  Level Minneapolis Center
05:28PM 42.6081 -94.3608 90° East 539 620 37,000  Level Minneapolis Center
05:29PM 42.6114 -94.1603 89° East 538 619 37,000  Level Minneapolis Center
05:30PM 42.6136 -93.9603 89° East 536 617 37,000  Level Minneapolis Center
05:31PM 42.6150 -93.7197 89° East 535 616 37,000  Level Minneapolis Center
05:32PM 42.6153 -93.5172 90° East 540 621 37,000  Level Minneapolis Center
05:33PM 42.6164 -93.3175 89° East 537 618 37,000  Level Minneapolis Center
05:34PM 42.6164 -93.1150 90° East 540 621 37,000  Level Minneapolis Center
05:35PM 42.6158 -92.8739 90° East 538 619 37,000  Level Minneapolis Center
05:36PM 42.6150 -92.6728 90° East 539 620 37,000  Level Minneapolis Center
05:42PM 42.6040 -91.4390 90° East 542 624 37,000  Level FlightAware
05:42PM 42.6010 -91.3040 92° East 541 623 37,000  Level FlightAware
05:43PM 42.5990 -91.1610 91° East 539 620 37,000  Level FlightAware
05:44PM 42.5960 -91.0140 92° East 538 619 37,000  Level FlightAware
05:44PM 42.5950 -90.9110 91° East 539 620 37,000  Level FlightAware
05:45PM 42.5920 -90.7730 92° East 541 623 37,000  Level FlightAware
05:46PM 42.5880 -90.6100 92° East 543 625 37,000  Level FlightAware
05:46PM 42.5860 -90.5100 92° East 543 625 37,000  Level FlightAware
05:47PM 42.5820 -90.3390 92° East 542 624 37,000  Level FlightAware
05:48PM 42.5780 -90.1970 92° East 541 623 37,000  Level FlightAware
05:49PM 42.5750 -90.0640 92° East 541 623 37,000  Level FlightAware
05:50PM 42.5700 -89.8810 92° East 540 621 37,000  Level FlightAware
05:51PM 42.5570 -89.4830 92° East 540 621 37,000  Level FlightAware
05:52PM 42.5530 -89.3350 92° East 539 620 37,000  Level FlightAware
05:53PM 42.5480 -89.1940 93° East 539 620 37,000  Level FlightAware
05:54PM 42.5430 -89.0490 93° East 539 620 37,000  Level FlightAware
05:54PM 42.5380 -88.9130 93° East 539 620 37,000  Level FlightAware
05:55PM 42.5320 -88.7590 93° East 537 618 37,000  Level FlightAware
05:56PM 42.5270 -88.6310 93° East 536 617 37,000  Level FlightAware
05:56PM 42.5220 -88.5150 93° East 535 616 37,000  Level FlightAware
05:57PM 42.5160 -88.3570 93° East 532 612 37,000  Level FlightAware
05:58PM 42.5100 -88.2270 94° East 531 611 37,000  Level FlightAware
05:58PM 42.5040 -88.0990 94° East 530 610 37,000  Level FlightAware
05:59PM 42.5000 -87.9460 92° East 528 608 37,000  Level FlightAware
06:00PM 42.5000 -87.8150 90° East 526 605 37,000  Level FlightAware
06:01PM 42.5000 -87.6690 90° East 524 603 37,000  Level FlightAware
06:01PM 42.4990 -87.5420 91° East 522 601 37,000  Level FlightAware
06:02PM 42.4990 -87.4020 90° East 521 600 37,000  Level FlightAware
06:03PM 42.4980 -87.2660 91° East 520 598 37,000  Level FlightAware
06:03PM 42.4970 -87.1290 91° East 519 597 37,000  Level FlightAware
06:04PM 42.4960 -87.0000 91° East 518 596 37,000  Level FlightAware
06:05PM 42.4950 -86.8580 90° East 519 597 37,000  Level FlightAware
06:05PM 42.4940 -86.7540 91° East 519 597 37,000  Level FlightAware
06:06PM 42.4920 -86.6080 91° East 520 598 37,000  Level FlightAware
06:07PM 42.4900 -86.4610 91° East 521 600 37,000  Level FlightAware
06:07PM 42.4890 -86.3640 91° East 521 600 37,000  Level FlightAware
06:08PM 42.4870 -86.2190 91° East 522 601 37,000  Level FlightAware
06:09PM 42.4850 -86.1090 91° East 522 601 37,000  Level FlightAware
06:09PM 42.4820 -85.9400 91° East 522 601 37,000  Level FlightAware
06:10PM 42.4800 -85.8090 91° East 521 600 37,000  Level FlightAware
06:11PM 42.4770 -85.6660 92° East 521 600 37,000  Level FlightAware
06:11PM 42.4740 -85.5420 92° East 521 600 37,000  Level FlightAware
06:12PM 42.4720 -85.4260 91° East 521 600 37,000  Level FlightAware
06:13PM 42.4690 -85.2820 92° East 520 598 37,000  Level FlightAware
06:13PM 42.4660 -85.1640 92° East 520 598 37,000  Level FlightAware
06:14PM 42.4630 -85.0360 92° East 520 598 37,000  Level FlightAware
06:15PM 42.4540 -84.8760 94° East 521 600 37,000  Level FlightAware
06:16PM 42.4470 -84.7470 94° East 520 598 37,000  Level FlightAware
06:16PM 42.4390 -84.6070 94° East 518 596 37,000  Level FlightAware
06:17PM 42.4320 -84.4860 94° East 517 595 37,000  Level FlightAware
06:18PM 42.4250 -84.3480 94° East 516 594 37,000  Level FlightAware
06:18PM 42.4170 -84.2120 95° East 515 593 37,000  Level FlightAware
06:19PM 42.4080 -84.0630 95° East 513 590 37,000  Level FlightAware
06:19PM 42.4030 -83.9800 95° East 512 589 37,000  Level FlightAware
06:21PM 42.3910 -83.7780 95° East 510 587 37,000  Level FlightAware
06:21PM 42.3820 -83.6430 95° East 509 586 37,000  Level FlightAware
06:22PM 42.3740 -83.5110 95° East 509 586 37,000  Level FlightAware
06:23PM 42.3660 -83.3970 95° East 509 586 37,000  Level FlightAware
06:23PM 42.3640 -83.3600 94° East 509 586 37,000  Level FlightAware
06:24PM 42.3500 -83.1470 95° East 509 586 37,000  Level FlightAware
06:25PM 42.3400 -83.0070 95° East 509 586 37,000  Level FlightAware
06:25PM 42.3310 -82.8790 95° East 508 585 37,000  Level FlightAware
06:26PM 42.3220 -82.7450 95° East 508 585 37,000  Level FlightAware
06:27PM 42.3120 -82.6150 96° East 509 586 37,000  Level FlightAware
06:27PM 42.3040 -82.5010 95° East 509 586 37,000  Level FlightAware
06:28PM 42.2940 -82.3620 96° East 508 585 37,000  Level FlightAware
06:29PM 42.2860 -82.2640 96° East 508 585 37,000  Level FlightAware
06:29PM 42.2760 -82.1300 96° East 507 583 37,000  Level FlightAware
06:30PM 42.2640 -81.9730 96° East 506 582 37,000  Level FlightAware
06:31PM 42.2580 -81.9000 96° East 506 582 37,000  Level FlightAware
06:31PM 42.2430 -81.7110 96° East 506 582 37,000  Level FlightAware
06:32PM 42.2290 -81.5380 96° East 506 582 37,000  Level FlightAware
06:33PM 42.2120 -81.3390 97° East 508 585 37,000  Level FlightAware
06:34PM 42.2020 -81.2210 96° East 507 583 37,000  Level FlightAware
06:35PM 42.1890 -81.0690 97° East 508 585 37,000  Level FlightAware
06:36PM 42.1790 -80.9450 96° East 508 585 37,000  Level FlightAware
06:36PM 42.1660 -80.8050 97° East 507 583 37,000  Level FlightAware
06:37PM 42.1580 -80.7120 97° East 508 585 37,000  Level FlightAware
06:37PM 42.1480 -80.6030 97° East 507 583 37,000  Level FlightAware
06:38PM 42.1360 -80.4700 97° East 506 582 37,000  Level FlightAware
06:39PM 42.1240 -80.3380 97° East 506 582 37,000  Level FlightAware
06:39PM 42.1140 -80.2320 97° East 506 582 37,000  Level FlightAware
06:40PM 42.0990 -80.0720 97° East 507 583 37,000  Level FlightAware
06:41PM 42.0890 -79.9700 97° East 506 582 37,000  Level FlightAware
06:42PM 42.0730 -79.8080 98° East 505 581 37,000  Level FlightAware
06:42PM 42.0610 -79.6850 97° East 503 579 37,000  Level FlightAware
06:43PM 42.0490 -79.5590 97° East 503 579 37,000  Level FlightAware
06:44PM 42.0360 -79.4340 98° East 503 579 37,000  Level FlightAware
06:44PM 42.0240 -79.3110 97° East 503 579 37,000  Level FlightAware
06:45PM 42.0110 -79.1870 98° East 502 578 37,000  Level FlightAware
06:46PM 41.9980 -79.0660 98° East 502 578 37,000  Level FlightAware
06:46PM 41.9860 -78.9510 98° East 503 579 37,000  Level FlightAware
06:47PM 41.9720 -78.8160 98° East 504 580 37,000  Level FlightAware
06:48PM 41.9600 -78.7020 98° East 503 579 37,000  Level FlightAware
06:48PM 41.9460 -78.5750 98° East 502 578 37,000  Level FlightAware
06:49PM 41.9320 -78.4480 98° East 501 577 37,000  Level FlightAware
06:50PM 41.9200 -78.3380 98° East 502 578 37,000  Level FlightAware
06:50PM 41.9050 -78.2050 99° East 501 577 37,000  Level FlightAware
06:51PM 41.8920 -78.0850 98° East 498 573 37,000  Level FlightAware
06:52PM 41.8760 -77.9430 99° East 495 570 37,000  Level FlightAware
06:52PM 41.8540 -77.8110 103° East 481 554 37,000  Level FlightAware
06:53PM 41.8300 -77.7160 109° East 476 548 37,000  Level FlightAware
06:54PM 41.8030 -77.6150 110° East 474 545 37,000  Level FlightAware
06:54PM 41.7700 -77.4910 110° East 473 544 37,000  Level FlightAware
06:55PM 41.7410 -77.3840 110° East 472 543 37,000 -300 Level FlightAware
06:56PM 41.7100 -77.2670 110° East 462 532 36,600 -840 Descending FlightAware
06:57PM 41.6760 -77.1420 110° East 461 531 35,800 -1,020 Descending FlightAware
06:57PM 41.6470 -77.0360 110° East 460 529 35,200 -1,140 Descending FlightAware
06:58PM 41.6213 -76.9397 110° East 462 532 34,500 -960 Descending FlightAware ADS-B
06:59PM 41.5873 -76.8145 110° East 459 528 34,000 -780 Descending FlightAware ADS-B
06:59PM 41.5620 -76.7230 110° East 454 522 33,400 -1,140 Descending FlightAware
06:59PM 41.5488 -76.6741 110° East 459 528 33,000 -600 Descending FlightAware ADS-B
07:00PM 41.5265 -76.5932 110° East 455 524 33,000  Level FlightAware ADS-B
07:00PM 41.5029 -76.5076 110° East 456 525 33,000  Level FlightAware ADS-B
07:01PM 41.4753 -76.4079 110° East 463 533 33,000  Level FlightAware ADS-B
07:02PM 41.4523 -76.3255 110° East 468 539 33,000  Level FlightAware ADS-B
07:02PM 41.4290 -76.2423 110° East 473 544 33,000  Level FlightAware ADS-B
07:03PM 41.4044 -76.1539 110° East 475 547 33,000  Level FlightAware ADS-B
07:03PM 41.3805 -76.0690 111° Southeast 474 545 33,000  Level FlightAware ADS-B
07:04PM 41.3540 -75.9750 111° Southeast 472 543 33,000 -300 Level FlightAware ADS-B
07:04PM 41.3307 -75.8922 111° Southeast 464 534 32,700 -1,680 Descending FlightAware ADS-B
07:05PM 41.3075 -75.8107 111° Southeast 465 535 31,300 -3,240 Descending FlightAware ADS-B
07:05PM 41.2825 -75.7243 111° Southeast 473 544 29,300 -4,080 Descending FlightAware ADS-B
07:06PM 41.2547 -75.6350 112° Southeast 480 552 26,900 -4,440 Descending FlightAware ADS-B
07:06PM 41.2261 -75.5495 114° Southeast 495 570 24,600 -3,480 Descending FlightAware ADS-B
07:07PM 41.1986 -75.4669 114° Southeast 485 558 23,400 -1,620 Descending FlightAware ADS-B
07:07PM 41.1709 -75.3840 114° Southeast 481 554 23,000 -420 Descending FlightAware ADS-B
07:08PM 41.1429 -75.3011 114° Southeast 484 557 23,000  Level FlightAware ADS-B
07:08PM 41.1150 -75.2187 114° Southeast 488 562 23,000  Level FlightAware ADS-B
07:09PM 41.0863 -75.1342 114° Southeast 491 565 23,000  Level FlightAware ADS-B
07:09PM 41.0561 -75.0454 114° Southeast 491 565 23,000 -120 Level FlightAware ADS-B
07:10PM 41.0279 -74.9626 114° Southeast 489 563 22,900 -660 Descending FlightAware ADS-B
07:10PM 41.0115 -74.9127 114° Southeast 486 559 22,500 -1,800 Descending FlightAware ADS-B
07:11PM 40.9982 -74.8599 108° East 484 557 21,800 -2,580 Descending FlightAware ADS-B
07:11PM 40.9849 -74.7725 101° East 480 552 20,400 -2,640 Descending FlightAware ADS-B
07:12PM 40.9753 -74.6853 98° East 476 548 19,200 -1,560 Descending FlightAware ADS-B
07:12PM 40.9681 -74.6164 98° East 450 518 19,000 -300 Descending FlightAware ADS-B
07:12PM 40.9620 -74.5699 100° East 427 491 19,000  Level FlightAware ADS-B
07:12PM 40.9570 -74.5475 106° East 416 479 19,000  Level FlightAware ADS-B
07:13PM 40.9365 -74.4767 111° Southeast 412 474 19,000  Level FlightAware ADS-B
07:13PM 40.9162 -74.4039 110° East 405 466 19,000  Level FlightAware ADS-B
07:14PM 40.8987 -74.3341 108° East 380 437 19,000  Level FlightAware ADS-B
07:14PM 40.8842 -74.2740 108° East 367 422 19,000  Level FlightAware ADS-B
07:15PM 40.8732 -74.2278 107° East 376 433 19,000  Level FlightAware ADS-B
07:15PM 40.8573 -74.1610 107° East 376 433 19,000 -240 Level FlightAware ADS-B
07:16PM 40.8411 -74.0964 108° East 370 426 18,800 -420 Descending FlightAware ADS-B
07:16PM 40.8395 -74.0900 108° East 368 423 18,800 -480 Level FlightAware ADS-B
07:16PM 40.8340 -74.0687 109° East 361 415 18,700 -480 Descending FlightAware ADS-B
07:16PM 40.8322 -74.0626 111° Southeast 358 412 18,700 -780 Level FlightAware ADS-B
07:16PM 40.8291 -74.0537 115° Southeast 354 407 18,600 -600 Descending FlightAware ADS-B
07:16PM 40.8252 -74.0444 119° Southeast 349 402 18,600 -900 Level FlightAware ADS-B
07:16PM 40.8163 -74.0289 127° Southeast 341 392 18,400 -960 Descending FlightAware ADS-B
07:16PM 40.8119 -74.0230 135° Southeast 337 388 18,400 -600 Level FlightAware ADS-B
07:17PM 40.8035 -74.0140 141° Southeast 330 380 18,300 -1,080 Descending FlightAware ADS-B
07:17PM 40.7621 -73.9841 151° Southeast 321 369 17,700 -1,260 Descending FlightAware ADS-B
07:18PM 40.7221 -73.9563 152° Southeast 321 369 17,000 -1,440 Descending FlightAware ADS-B
07:18PM 40.6828 -73.9289 152° Southeast 318 366 16,300 -1,200 Descending FlightAware ADS-B
07:19PM 40.6438 -73.9032 153° Southeast 306 352 15,800 -1,500 Descending FlightAware ADS-B
07:19PM 40.6012 -73.8749 153° Southeast 299 344 14,700 -1,920 Descending FlightAware ADS-B
07:20PM 40.5646 -73.8497 152° Southeast 295 339 13,800 -1,980 Descending FlightAware ADS-B
07:20PM 40.5280 -73.8241 152° Southeast 293 337 12,700 -2,220 Descending FlightAware ADS-B
07:21PM 40.4919 -73.7989 152° Southeast 289 333 11,600 -2,400 Descending FlightAware ADS-B
07:21PM 40.4555 -73.7729 151° Southeast 293 337 10,300 -2,580 Descending FlightAware ADS-B
07:21PM 40.4366 -73.7594 151° Southeast 294 338 9,600 -2,520 Descending FlightAware ADS-B
07:22PM 40.4148 -73.7444 152° Southeast 289 333 8,900 -2,100 Descending FlightAware ADS-B
07:22PM 40.4100 -73.7407 150° Southeast 288 331 8,800 -1,800 Descending FlightAware ADS-B
07:22PM 40.4043 -73.7358 147° Southeast 289 333 8,600 -2,040 Descending FlightAware ADS-B
07:22PM 40.3948 -73.7233 135° Southeast 289 333 8,300 -1,740 Descending FlightAware ADS-B
07:22PM 40.3920 -73.7173 121° Southeast 290 334 8,200 -1,920 Descending FlightAware ADS-B
07:22PM 40.3865 -73.6976 110° East 291 335 7,800 -1,920 Descending FlightAware ADS-B
07:23PM 40.3853 -73.6858 98° East 290 334 7,600 -2,220 Descending FlightAware ADS-B
07:23PM 40.3837 -73.6582 94° East 293 337 7,000 -1,800 Descending FlightAware ADS-B
07:23PM 40.3825 -73.6314 93° East 294 338 6,700 -1,200 Descending FlightAware ADS-B
07:23PM 40.3813 -73.6038 93° East 292 336 6,400 -1,200 Descending FlightAware ADS-B
07:24PM 40.3799 -73.5575 92° East 288 331 5,900 -1,200 Descending FlightAware ADS-B
07:24PM 40.3888 -73.5279 68° East 292 336 5,500 -1,260 Descending FlightAware ADS-B
07:25PM 40.4450 -73.4830 31° Northeast 289 333 4,500 -1,140 Descending FlightAware
07:25PM 40.4810 -73.4610 25° Northeast 285 328 4,000 -660 Descending FlightAware
07:26PM 40.5130 -73.4420 24° Northeast 283 326 3,900 -120 Descending FlightAware
07:26PM 40.5490 -73.4340 10° North 284 327 3,900  Level FlightAware
07:27PM 40.5700 -73.4310 North 285 328 3,900  Level FlightAware
07:27PM 40.6060 -73.4250 North 281 323 3,900  Level FlightAware
07:27PM 40.6430 -73.4240 North 280 322 3,900  Level FlightAware
07:28PM 40.6790 -73.4340 348° North 283 326 3,900  Level FlightAware
07:28PM 40.7060 -73.4420 347° North 283 326 3,900  Level FlightAware
07:29PM 40.7390 -73.4520 347° North 282 325 3,900 -180 Level FlightAware
07:29PM 40.7580 -73.4610 340° North 277 319 3,800 -840 Descending FlightAware
07:29PM 40.7860 -73.4920 320° Northwest 270 311 3,300 -900 Descending FlightAware
07:30PM 40.8110 -73.5210 319° Northwest 259 298 3,000 -480 Descending FlightAware
07:30PM 40.8320 -73.5470 317° Northwest 240 276 2,900 -180 Descending FlightAware
07:31PM 40.8390 -73.5670 295° West 218 251 2,900  Level FlightAware
07:31PM 40.8310 -73.5970 251° West 183 211 2,900 -240 Level FlightAware
07:32PM 40.8150 -73.6190 226° Southwest 179 206 2,700 -240 Descending FlightAware
07:32PM 40.7960 -73.6370 216° Southwest 182 209 2,700  Level FlightAware
07:32PM 40.7760 -73.6530 211° Southwest 180 207 2,700 -360 Level FlightAware
07:33PM 40.7560 -73.6680 210° Southwest 184 212 2,400 -840 Descending FlightAware
07:33PM 40.7330 -73.6860 211° Southwest 182 209 1,900 -1,020 Descending FlightAware
07:34PM 40.7150 -73.7000 211° Southwest 174 200 1,500 -960 Descending FlightAware
07:34PM 40.6970 -73.7140 211° Southwest 146 168 1,100 -720 Descending FlightAware
07:35PM 40.6880 -73.7210 211° Southwest 132 152 1,000 -540 Descending FlightAware
07:35PM 40.6740 -73.7330 213° Southwest 137 158 700 -780 Descending FlightAware
07:35PM 40.6670 -73.7380 208° Southwest 135 155 500 -900 Descending FlightAware
07:36PM 40.6500 -73.7510 210° Southwest 139 160 100 -840 Descending FlightAware
07:36PM 40.6370 -73.7620 213° Southwest 120 138 -240 Descending FlightAware
07:37PM 40.6300 -73.7680 213° Southwest 24 28  Level FlightAware
07:37PM 40.6290 -73.7690 217° Southwest 18 21  Level FlightAware
07:37PM 40.6310 -73.7700 339° North 20 23  Level FlightAware
07:38PM 40.6340 -73.7710 346° North 20 23  Level FlightAware
07:40PM 40.6350 -73.7740 294° West 26 30  Level FlightAware
07:40PM 40.6360 -73.7760 303° West 24 28  Level FlightAware
07:41PM 40.6370 -73.7760 360° North 13 15  Level FlightAware
07:42PM 40.6410 -73.7780 346° North 29 33  Level FlightAware